Fiskburg, Kentucky
Current Conditions -  °F | °C
As of 3:53 PM on Friday 19 Dec 2014 (Local Time) from KLUK Reporting Station
Overcast Overcast  
Wind Chill: 31°   Ceiling: 2600
Heat Index: 31°   Visibility: 10mi
Dew Point: 21°   Wind: 0mph
Humidity: 67%   Direction: NA
Pressure: 30.29"   Gusts: NA
Location:  38.8043°N, 84.4185°W
Report Text: KLUK 192053Z 00000KT 10SM OVC026 M01/M06 A3029 RMK AO2 SLP261 T10061061 55002
Loading
Personal Weather Stations






























Interactive Weather Map New forecast layout! Learn more

10-Day Weather Forecast

Advertisements
Track Severe Weather on mobile